Time;durP1;ratioP1;P1;durP2;ratioP2;P2;SDS_P1;SDS_P2;PMS_P1;PMS_P2;Temp;Humidity;BMP_temperature;BMP_pressure;BME280_temperature;BME280_humidity;BME280_pressure;Samples;Min_cycle;Max_cycle;Signal;HPM_P1;HPM_P2
2021/12/15 00:02:19;;;;;;;13.20;6.57;;;8.70;73.70;;;;;;2560565;53;21438;-81
2021/12/15 00:04:47;;;;;;;16.67;7.07;;;8.60;73.60;;;;;;2555681;53;20991;-81
2021/12/15 00:07:13;;;;;;;12.52;6.40;;;8.70;73.70;;;;;;2556246;53;20939;-81
2021/12/15 00:09:40;;;;;;;12.57;6.20;;;8.70;73.60;;;;;;2562186;53;21587;-81
2021/12/15 00:12:06;;;;;;;15.50;7.45;;;8.70;73.60;;;;;;2564126;53;21231;-81
2021/12/15 00:14:34;;;;;;;14.25;6.95;;;8.70;73.70;;;;;;2564779;53;21467;-81
2021/12/15 00:17:00;;;;;;;15.15;7.05;;;8.70;73.60;;;;;;2563004;53;21423;-80
2021/12/15 00:19:28;;;;;;;13.88;6.53;;;8.70;73.70;;;;;;2560973;53;20948;-81
2021/12/15 00:21:55;;;;;;;15.65;7.93;;;8.70;73.70;;;;;;2333445;54;21507;-81
2021/12/15 00:24:21;;;;;;;13.68;6.75;;;8.70;73.80;;;;;;2511229;53;21766;-81
2021/12/15 00:26:48;;;;;;;14.25;6.97;;;8.70;73.80;;;;;;2317018;54;21331;-81
2021/12/15 00:29:15;;;;;;;16.30;7.97;;;8.70;73.90;;;;;;2556072;53;21035;-82
2021/12/15 00:31:42;;;;;;;13.60;7.30;;;8.70;73.90;;;;;;2565889;53;20979;-80
2021/12/15 00:34:09;;;;;;;16.33;7.45;;;8.70;73.90;;;;;;2327082;54;20935;-81
2021/12/15 00:36:35;;;;;;;18.48;8.13;;;8.70;73.90;;;;;;2572699;53;21019;-81
2021/12/15 00:39:03;;;;;;;13.18;6.20;;;8.70;73.90;;;;;;2556020;53;21015;-81
2021/12/15 00:41:29;;;;;;;15.77;6.70;;;8.70;73.90;;;;;;2555680;53;20967;-81
2021/12/15 00:43:57;;;;;;;13.68;6.78;;;8.80;74.00;;;;;;2574061;53;21667;-81
2021/12/15 00:46:23;;;;;;;15.23;7.78;;;8.70;73.90;;;;;;2556347;53;20963;-81
2021/12/15 00:48:50;;;;;;;19.10;8.65;;;8.80;74.00;;;;;;2336308;54;21974;-81
2021/12/15 00:51:17;;;;;;;15.77;7.22;;;8.80;74.00;;;;;;2323875;54;20971;-81
2021/12/15 00:53:44;;;;;;;15.65;7.15;;;8.80;74.00;;;;;;2533463;53;21311;-81
2021/12/15 00:56:10;;;;;;;16.52;7.32;;;8.80;73.90;;;;;;2556670;53;20934;-81
2021/12/15 00:58:37;;;;;;;18.98;8.40;;;8.80;73.80;;;;;;2557068;53;20928;-81
2021/12/15 01:01:03;;;;;;;16.90;7.93;;;8.80;73.70;;;;;;2315248;55;20979;-81
2021/12/15 01:03:30;;;;;;;16.58;8.23;;;8.80;73.60;;;;;;2556170;53;21006;-80
2021/12/15 01:06:05;;;;;;;16.55;7.43;;;8.80;73.60;;;;;;2567011;53;20919;-81
2021/12/15 01:08:32;;;;;;;13.62;7.00;;;8.80;73.60;;;;;;2572847;53;21850;-81
2021/12/15 01:11:16;;;;;;;17.65;7.68;;;8.80;73.70;;;;;;2324139;54;20998;-81
2021/12/15 01:22:55;;;;;;;14.38;6.28;;;8.80;73.70;;;;;;2569108;53;21720;-81
2021/12/15 01:25:42;;;;;;;15.95;6.80;;;8.80;73.60;;;;;;2560190;53;21925;-82
2021/12/15 01:28:08;;;;;;;14.68;6.80;;;8.80;73.60;;;;;;2530073;53;20939;-81
2021/12/15 01:30:37;;;;;;;16.15;7.80;;;8.80;73.70;;;;;;2568088;53;21962;-81
2021/12/15 01:33:04;;;;;;;15.60;7.20;;;8.80;73.80;;;;;;2573092;53;21281;-81
2021/12/15 01:35:30;;;;;;;14.02;6.57;;;8.80;73.90;;;;;;2336221;54;20971;-81
2021/12/15 01:37:57;;;;;;;16.55;7.87;;;8.80;73.90;;;;;;2556820;53;21026;-81
2021/12/15 01:40:37;;;;;;;16.35;7.05;;;8.80;74.00;;;;;;2554745;53;20987;-81
2021/12/15 01:43:37;;;;;;;15.38;6.72;;;8.80;73.90;;;;;;2569854;53;21015;-81
2021/12/15 01:50:11;;;;;;;18.62;7.93;;;8.80;73.80;;;;;;2555853;53;20999;-81
2021/12/15 01:52:38;;;;;;;14.32;6.70;;;8.80;73.20;;;;;;2574420;53;20899;-81
2021/12/15 01:55:17;;;;;;;16.10;6.53;;;8.80;73.60;;;;;;2556374;53;21029;-81
2021/12/15 01:57:43;;;;;;;14.15;6.12;;;8.80;73.60;;;;;;2555953;53;20990;-80
2021/12/15 02:00:25;;;;;;;16.33;7.45;;;8.80;73.70;;;;;;2555797;53;20995;-81
2021/12/15 02:02:52;;;;;;;15.95;6.37;;;8.80;73.60;;;;;;2325891;54;20987;-81
2021/12/15 02:05:19;;;;;;;12.85;5.57;;;8.80;73.70;;;;;;2569327;53;20971;-81
2021/12/15 02:07:47;;;;;;;19.20;7.32;;;8.90;73.80;;;;;;2525448;54;20971;-81
2021/12/15 02:10:14;;;;;;;17.23;7.65;;;8.80;73.70;;;;;;2317186;55;20982;-82
2021/12/15 02:12:53;;;;;;;19.05;7.80;;;8.80;73.70;;;;;;2556921;53;21105;-81
2021/12/15 02:15:22;;;;;;;17.55;7.35;;;8.80;73.70;;;;;;2558539;53;20902;-83
2021/12/15 02:17:48;;;;;;;16.92;7.68;;;8.80;73.80;;;;;;2568727;53;20920;-82
2021/12/15 02:20:17;;;;;;;17.37;6.97;;;8.90;73.80;;;;;;2556341;53;20975;-81
2021/12/15 02:22:43;;;;;;;14.02;6.47;;;8.90;73.90;;;;;;2556446;53;20955;-81
2021/12/15 02:25:12;;;;;;;16.05;7.80;;;8.80;73.80;;;;;;2574565;53;20967;-81
2021/12/15 02:27:38;;;;;;;17.62;7.35;;;8.80;73.70;;;;;;2557085;53;21660;-81
2021/12/15 02:30:47;;;;;;;16.73;7.47;;;8.80;73.70;;;;;;2573649;53;20924;-81
2021/12/15 02:33:41;;;;;;;15.35;7.25;;;8.90;73.80;;;;;;2556576;53;20943;-81
2021/12/15 02:38:52;;;;;;;12.85;6.00;;;8.90;73.70;;;;;;2556991;53;20927;-82
2021/12/15 02:41:23;;;;;;;14.90;6.57;;;8.90;73.70;;;;;;2322832;54;21426;-81
2021/12/15 02:44:03;;;;;;;17.77;7.15;;;8.80;73.70;;;;;;2329334;54;20992;-81
2021/12/15 02:46:30;;;;;;;16.58;7.15;;;8.90;73.60;;;;;;2553208;53;21078;-82
2021/12/15 02:48:56;;;;;;;16.05;6.72;;;8.90;73.80;;;;;;2556760;53;20927;-81
2021/12/15 02:51:22;;;;;;;17.15;7.30;;;8.90;73.80;;;;;;2556254;53;22136;-81
2021/12/15 02:53:49;;;;;;;14.95;6.43;;;8.90;73.80;;;;;;2556937;53;20951;-80
2021/12/15 02:56:16;;;;;;;15.38;6.78;;;8.90;73.80;;;;;;2322391;54;20947;-81
2021/12/15 02:58:50;;;;;;;15.05;6.82;;;8.90;73.90;;;;;;2568976;53;21028;-81
2021/12/15 03:01:25;;;;;;;15.13;6.72;;;8.90;73.90;;;;;;2552325;53;20987;-81
2021/12/15 03:04:29;;;;;;;15.63;6.70;;;8.90;73.90;;;;;;2555645;53;20951;-81
2021/12/15 03:07:15;;;;;;;16.90;6.87;;;8.90;74.00;;;;;;2556367;53;20955;-81
2021/12/15 03:15:35;;;;;;;18.45;8.30;;;8.90;73.60;;;;;;2563564;53;22198;-81
2021/12/15 03:18:19;;;;;;;18.75;9.35;;;8.90;73.60;;;;;;2565815;53;20939;-80
2021/12/15 03:20:48;;;;;;;17.42;7.82;;;8.90;73.40;;;;;;2556270;53;20958;-81
2021/12/15 03:23:21;;;;;;;16.17;7.82;;;8.90;73.50;;;;;;2554752;53;22072;-81
2021/12/15 03:25:47;;;;;;;20.73;8.45;;;8.90;73.50;;;;;;2317801;54;20979;-80
2021/12/15 03:35:21;;;;;;;22.00;9.02;;;8.80;73.40;;;;;;2566064;53;20935;-81
2021/12/15 03:37:51;;;;;;;16.92;7.93;;;8.80;73.30;;;;;;2556308;53;21755;-81
2021/12/15 03:40:25;;;;;;;18.75;7.80;;;8.80;73.30;;;;;;2556505;53;21066;-81
2021/12/15 03:43:45;;;;;;;;;;;;;;;;;;;;;
2021/12/15 03:46:13;;;;;;;14.60;7.22;;;8.70;73.30;;;;;;2565016;53;20970;-81
2021/12/15 03:48:42;;;;;;;17.50;8.20;;;8.70;73.40;;;;;;2560553;53;21007;-82
2021/12/15 03:51:12;;;;;;;17.62;8.50;;;8.70;73.50;;;;;;2317303;55;21835;-81
2021/12/15 03:53:39;;;;;;;19.30;8.93;;;8.70;73.70;;;;;;2294654;54;21059;-82
2021/12/15 03:56:09;;;;;;;18.80;8.77;;;8.70;73.70;;;;;;2523994;54;21107;-81
2021/12/15 03:58:35;;;;;;;19.30;8.13;;;8.70;73.70;;;;;;2559887;53;21060;-81
2021/12/15 04:01:05;;;;;;;18.33;8.07;;;8.70;73.80;;;;;;2329582;54;21042;-80
2021/12/15 04:03:34;;;;;;;17.75;8.65;;;8.70;73.80;;;;;;2570700;53;20956;-81
2021/12/15 04:06:03;;;;;;;18.55;8.48;;;8.70;73.80;;;;;;2318217;54;20955;-81
2021/12/15 04:08:29;;;;;;;17.42;8.40;;;8.70;73.80;;;;;;2572793;53;21066;-81
2021/12/15 04:10:56;;;;;;;17.85;8.23;;;8.70;73.80;;;;;;2575473;53;21003;-82
2021/12/15 04:13:23;;;;;;;15.93;7.45;;;8.70;73.80;;;;;;2556086;53;20923;-81
2021/12/15 04:15:57;;;;;;;16.17;7.65;;;8.70;73.80;;;;;;2573206;53;21047;-82
2021/12/15 04:18:24;;;;;;;16.67;7.40;;;8.70;73.90;;;;;;2556620;53;21095;-81
2021/12/15 04:20:51;;;;;;;15.65;7.03;;;8.70;73.90;;;;;;2556551;53;21050;-81
2021/12/15 04:23:19;;;;;;;15.68;7.07;;;8.70;73.90;;;;;;2556278;53;20927;-82
2021/12/15 04:25:47;;;;;;;15.15;7.70;;;8.70;73.90;;;;;;2316837;54;20912;-81
2021/12/15 04:28:18;;;;;;;14.18;6.82;;;8.70;73.90;;;;;;2556422;53;20975;-81
2021/12/15 04:30:49;;;;;;;16.73;7.60;;;8.70;73.90;;;;;;2546378;53;20924;-81
2021/12/15 04:33:31;;;;;;;13.60;6.28;;;8.70;73.90;;;;;;2524169;54;21094;-80
2021/12/15 04:35:58;;;;;;;;;;;8.80;74.00;;;;;;2328773;54;21067;-81
2021/12/15 04:38:25;;;;;;;13.75;6.40;;;8.80;73.40;;;;;;2567845;53;20139;-81
2021/12/15 04:40:51;;;;;;;14.77;6.75;;;8.80;73.90;;;;;;2573795;53;20919;-82
2021/12/15 04:43:18;;;;;;;15.63;7.37;;;8.80;73.90;;;;;;2317090;54;20927;-81
2021/12/15 04:45:44;;;;;;;14.30;6.60;;;8.80;73.90;;;;;;2337807;54;22127;-81
2021/12/15 04:48:11;;;;;;;15.93;7.57;;;8.80;74.00;;;;;;2564871;53;21293;-81
2021/12/15 04:50:37;;;;;;;15.52;6.95;;;8.80;74.00;;;;;;2334839;54;21014;-80
2021/12/15 04:53:04;;;;;;;20.80;7.72;;;8.80;73.90;;;;;;2566420;53;20924;-81
2021/12/15 04:55:31;;;;;;;16.67;7.07;;;8.80;73.90;;;;;;2569156;53;20895;-82
2021/12/15 04:57:58;;;;;;;21.42;7.90;;;8.80;73.70;;;;;;2309298;54;20975;-82
2021/12/15 05:00:26;;;;;;;20.42;8.30;;;8.70;73.60;;;;;;2542273;53;20943;-80
2021/12/15 05:02:53;;;;;;;18.08;6.93;;;8.70;73.70;;;;;;2543233;53;20998;-81
2021/12/15 05:05:21;;;;;;;21.45;7.82;;;8.80;73.80;;;;;;2563070;53;21056;-81
2021/12/15 05:07:49;;;;;;;18.27;7.40;;;8.70;73.70;;;;;;2303820;54;21453;-81
2021/12/15 05:10:16;;;;;;;23.12;8.98;;;8.70;73.60;;;;;;2326318;54;20930;-83
2021/12/15 05:12:42;;;;;;;18.23;7.43;;;8.80;73.60;;;;;;2539606;53;20959;-81
2021/12/15 05:15:10;;;;;;;16.67;7.07;;;8.70;73.60;;;;;;2560559;53;21051;-81
2021/12/15 05:17:37;;;;;;;19.23;7.45;;;8.70;73.60;;;;;;2303969;54;20931;-81
2021/12/15 05:20:06;;;;;;;20.27;8.35;;;8.70;73.70;;;;;;2540734;53;20980;-81
2021/12/15 05:22:32;;;;;;;19.02;7.50;;;8.70;73.80;;;;;;2541609;53;21404;-82
2021/12/15 05:24:59;;;;;;;18.75;8.25;;;8.70;73.70;;;;;;2541158;53;20974;-82
2021/12/15 05:27:25;;;;;;;19.60;6.97;;;8.70;73.70;;;;;;2558533;53;21003;-81
2021/12/15 05:29:52;;;;;;;16.40;6.93;;;8.70;73.80;;;;;;2557563;53;20987;-81
2021/12/15 05:32:19;;;;;;;16.62;6.32;;;8.70;73.80;;;;;;2559226;53;21042;-81
2021/12/15 05:34:46;;;;;;;18.42;7.37;;;8.50;73.60;;;;;;2540924;53;20932;-81
2021/12/15 05:37:12;;;;;;;19.85;6.80;;;8.80;73.90;;;;;;2559206;53;21086;-81
2021/12/15 05:39:40;;;;;;;18.37;6.87;;;8.70;73.80;;;;;;2316354;54;21007;-80
2021/12/15 05:42:07;;;;;;;19.10;7.55;;;8.70;73.80;;;;;;2309524;54;21468;-81
2021/12/15 05:44:34;;;;;;;19.73;7.18;;;8.60;73.50;;;;;;2541418;53;20963;-82
2021/12/15 05:47:00;;;;;;;20.37;6.82;;;8.70;73.60;;;;;;2303394;54;20939;-81
2021/12/15 05:49:27;;;;;;;14.13;5.35;;;8.70;73.70;;;;;;2543446;53;20943;-81
2021/12/15 05:51:54;;;;;;;15.93;6.43;;;8.70;73.80;;;;;;2541299;53;21815;-82
2021/12/15 05:54:20;;;;;;;17.50;6.22;;;8.70;73.80;;;;;;2304468;55;20963;-81
2021/12/15 05:56:47;;;;;;;21.15;7.53;;;8.70;73.90;;;;;;2549716;53;20923;-82
2021/12/15 05:59:13;;;;;;;17.52;6.30;;;8.70;73.90;;;;;;2552341;53;20950;-82
2021/12/15 06:01:40;;;;;;;15.55;5.47;;;8.70;73.90;;;;;;2325261;54;20935;-81
2021/12/15 06:04:07;;;;;;;15.93;6.18;;;8.80;74.00;;;;;;2302993;54;21114;-81
2021/12/15 06:06:33;;;;;;;17.85;5.93;;;8.70;74.00;;;;;;2306061;54;21017;-81
2021/12/15 06:09:00;;;;;;;17.33;6.53;;;8.70;73.90;;;;;;2312743;54;20956;-81
2021/12/15 06:11:26;;;;;;;15.98;5.43;;;8.70;73.80;;;;;;2554477;53;21043;-82
2021/12/15 06:13:53;;;;;;;16.52;5.47;;;8.70;73.70;;;;;;2542304;53;20943;-80
2021/12/15 06:16:20;;;;;;;15.00;6.10;;;8.70;73.80;;;;;;2550203;53;20963;-82
2021/12/15 06:18:48;;;;;;;16.67;6.60;;;8.70;73.80;;;;;;2311936;54;21027;-81
2021/12/15 06:21:15;;;;;;;17.67;6.60;;;8.80;73.80;;;;;;2542220;53;21400;-83
2021/12/15 06:23:42;;;;;;;18.50;6.80;;;8.80;73.80;;;;;;2549913;53;20970;-81
2021/12/15 06:26:08;;;;;;;18.62;7.12;;;8.80;73.80;;;;;;2556586;53;20952;-81
2021/12/15 06:28:35;;;;;;;16.65;6.75;;;8.70;73.80;;;;;;2557281;53;21040;-81
2021/12/15 06:31:02;;;;;;;15.68;5.70;;;8.80;73.90;;;;;;2540657;53;21890;-81
2021/12/15 06:33:29;;;;;;;23.85;6.97;;;8.70;73.80;;;;;;2318297;54;20995;-80
2021/12/15 06:35:59;;;;;;;20.30;6.68;;;8.70;73.70;;;;;;2542172;53;22157;-81
2021/12/15 06:38:37;;;;;;;18.85;7.18;;;8.70;73.50;;;;;;2527202;53;20983;-81
2021/12/15 06:41:05;;;;;;;16.77;6.80;;;8.70;73.50;;;;;;2310594;54;21027;-81
2021/12/15 06:43:31;;;;;;;15.63;6.20;;;8.70;73.40;;;;;;2558656;53;21074;-81
2021/12/15 06:46:18;;;;;;;20.40;6.72;;;8.70;73.50;;;;;;2300867;54;21104;-81
2021/12/15 06:59:42;;;;;;;17.15;6.07;;;8.60;73.50;;;;;;2561275;53;21030;-81
2021/12/15 07:02:09;;;;;;;18.77;7.03;;;8.60;73.50;;;;;;2542841;53;20990;-82
2021/12/15 07:04:36;;;;;;;13.68;5.28;;;8.60;73.50;;;;;;2304717;55;22045;-81
2021/12/15 07:07:04;;;;;;;18.42;6.68;;;8.60;73.70;;;;;;2542794;53;21006;-81
2021/12/15 07:09:30;;;;;;;13.60;5.15;;;8.60;73.70;;;;;;2542385;53;20927;-81
2021/12/15 07:11:58;;;;;;;17.23;5.97;;;8.60;73.80;;;;;;2543171;53;20951;-81
2021/12/15 07:14:24;;;;;;;15.48;5.40;;;8.60;73.80;;;;;;2543760;53;20927;-81
2021/12/15 07:16:53;;;;;;;14.98;5.70;;;8.60;73.90;;;;;;2559231;53;20903;-81
2021/12/15 07:19:31;;;;;;;19.90;6.10;;;8.60;73.90;;;;;;2543260;53;20967;-80
2021/12/15 07:22:15;;;;;;;16.45;6.25;;;8.60;74.00;;;;;;2543658;53;20995;-81
2021/12/15 07:24:41;;;;;;;17.25;6.22;;;8.60;73.80;;;;;;2316130;54;21290;-80
2021/12/15 07:27:08;;;;;;;16.52;5.87;;;8.60;73.70;;;;;;2545304;53;21035;-82
2021/12/15 07:29:34;;;;;;;15.30;5.40;;;8.60;73.80;;;;;;2558109;53;20971;-81
2021/12/15 07:32:01;;;;;;;14.50;5.55;;;8.60;74.00;;;;;;2543545;53;20947;-81
2021/12/15 07:34:28;;;;;;;16.17;6.50;;;8.60;74.00;;;;;;2305201;54;20925;-81
2021/12/15 07:36:55;;;;;;;17.30;7.12;;;8.70;74.70;;;;;;2540675;53;20987;-81
2021/12/15 07:39:22;;;;;;;17.15;6.97;;;8.70;74.00;;;;;;2542624;53;21023;-81
2021/12/15 07:41:51;;;;;;;18.73;6.80;;;8.70;74.00;;;;;;2543641;53;20923;-82
2021/12/15 07:44:21;;;;;;;16.40;6.60;;;8.70;74.10;;;;;;2307822;54;21228;-81
2021/12/15 07:47:00;;;;;;;13.40;6.07;;;8.70;74.00;;;;;;2511833;54;21078;-81
2021/12/15 07:49:26;;;;;;;11.15;4.43;;;8.70;73.90;;;;;;2542432;53;20947;-82
2021/12/15 07:51:59;;;;;;;14.43;5.87;;;8.70;74.20;;;;;;2543225;53;20939;-81
2021/12/15 07:54:29;;;;;;;15.70;6.30;;;8.70;74.20;;;;;;2553362;53;20900;-81
2021/12/15 07:56:56;;;;;;;17.40;6.45;;;8.70;74.30;;;;;;2312417;54;22173;-82
2021/12/15 07:59:23;;;;;;;18.08;7.18;;;8.70;74.20;;;;;;2543246;53;20956;-81
2021/12/15 08:01:51;;;;;;;15.77;6.55;;;8.70;74.00;;;;;;2538449;53;21078;-81
2021/12/15 08:04:19;;;;;;;18.67;7.03;;;8.70;74.10;;;;;;2322489;54;21286;-82
2021/12/15 08:06:46;;;;;;;11.98;5.57;;;8.80;74.20;;;;;;2544194;53;21031;-82
2021/12/15 08:09:16;;;;;;;15.23;5.47;;;8.80;74.30;;;;;;2323136;54;20936;-82
2021/12/15 08:11:43;;;;;;;14.73;6.10;;;8.80;74.30;;;;;;2543466;53;20931;-81
2021/12/15 08:14:09;;;;;;;12.57;5.03;;;8.80;74.40;;;;;;2317755;54;21969;-81
2021/12/15 08:16:35;;;;;;;13.77;5.68;;;8.60;74.20;;;;;;2550763;53;20936;-80
2021/12/15 08:19:02;;;;;;;16.15;6.30;;;8.80;74.40;;;;;;2559210;53;20947;-81
2021/12/15 08:21:28;;;;;;;12.90;4.62;;;8.80;74.30;;;;;;2544127;53;20908;-81
2021/12/15 08:23:55;;;;;;;12.75;5.35;;;8.80;74.40;;;;;;2326692;54;20947;-81
2021/12/15 08:26:21;;;;;;;16.20;5.93;;;8.90;74.50;;;;;;2553585;53;21831;-81
2021/12/15 08:28:48;;;;;;;16.05;6.15;;;8.90;74.40;;;;;;2552524;53;21639;-81
2021/12/15 08:31:14;;;;;;;17.35;6.75;;;8.90;74.40;;;;;;2544226;53;20999;-81
2021/12/15 08:33:40;;;;;;;15.07;5.68;;;8.90;74.40;;;;;;2544384;53;21396;-80
2021/12/15 08:36:08;;;;;;;15.05;6.37;;;8.90;74.30;;;;;;2543984;53;20955;-80
2021/12/15 08:38:37;;;;;;;17.10;6.43;;;8.90;74.30;;;;;;2545115;53;20963;-82
2021/12/15 08:41:45;;;;;;;18.42;6.65;;;9.00;74.30;;;;;;2563723;53;20940;-81
2021/12/15 08:44:12;;;;;;;13.43;5.47;;;9.00;73.80;;;;;;2555039;53;20955;-81
2021/12/15 08:46:41;;;;;;;17.87;7.35;;;9.00;74.20;;;;;;2550664;53;20963;-81
2021/12/15 08:49:09;;;;;;;18.65;6.57;;;9.00;74.20;;;;;;2309412;54;20982;-81
2021/12/15 08:51:36;;;;;;;17.73;6.85;;;9.00;74.10;;;;;;2545984;53;21012;-81
2021/12/15 08:54:11;;;;;;;19.67;7.97;;;9.00;74.00;;;;;;2560339;53;21637;-81
2021/12/15 08:56:40;;;;;;;21.58;7.05;;;9.00;73.90;;;;;;2544247;53;20931;-80
2021/12/15 08:59:06;;;;;;;23.23;7.65;;;9.00;74.00;;;;;;2565107;53;21059;-81
2021/12/15 09:01:33;;;;;;;15.93;6.00;;;9.00;74.00;;;;;;2545835;53;20983;-81
2021/12/15 09:03:59;;;;;;;19.42;6.35;;;9.00;74.10;;;;;;2554063;53;20995;-81
2021/12/15 09:06:26;;;;;;;20.60;7.65;;;9.00;74.20;;;;;;2551795;53;21032;-81
2021/12/15 09:08:52;;;;;;;15.70;6.70;;;9.00;74.30;;;;;;2544775;53;20939;-81
2021/12/15 09:11:22;;;;;;;20.35;7.15;;;9.00;74.30;;;;;;2543924;53;20983;-81
2021/12/15 09:13:50;;;;;;;17.73;6.68;;;9.00;74.30;;;;;;2543620;53;20935;-81
2021/12/15 09:16:17;;;;;;;16.02;6.78;;;9.00;74.40;;;;;;2561233;53;20919;-81
2021/12/15 09:18:44;;;;;;;12.30;5.07;;;9.00;74.50;;;;;;2544127;53;20979;-82
2021/12/15 09:21:12;;;;;;;13.75;5.57;;;9.10;74.50;;;;;;2554469;53;21059;-81
2021/12/15 09:23:38;;;;;;;13.20;5.40;;;9.10;74.50;;;;;;2551535;53;20935;-81
2021/12/15 09:26:05;;;;;;;16.17;6.35;;;9.10;74.30;;;;;;2560160;53;20999;-81
2021/12/15 09:28:32;;;;;;;16.65;6.37;;;9.10;74.40;;;;;;2543447;53;20971;-81
2021/12/15 09:30:59;;;;;;;14.05;5.90;;;9.10;74.50;;;;;;2543989;53;21259;-80
2021/12/15 09:33:30;;;;;;;15.35;6.15;;;9.20;74.60;;;;;;2559947;53;21103;-81
2021/12/15 09:35:56;;;;;;;15.85;6.35;;;9.20;74.50;;;;;;2544003;53;21465;-81
2021/12/15 09:38:23;;;;;;;13.23;5.82;;;9.20;74.50;;;;;;2546461;53;21396;-82
2021/12/15 09:40:52;;;;;;;16.45;6.78;;;9.20;74.50;;;;;;2558876;53;22200;-81
2021/12/15 09:43:18;;;;;;;12.63;5.87;;;9.20;74.50;;;;;;2305843;55;21865;-80
2021/12/15 09:45:53;;;;;;;14.25;6.00;;;9.30;74.60;;;;;;2542852;53;20936;-81
2021/12/15 10:18:56;;;;;;;11.02;4.65;;;9.50;74.60;;;;;;2544736;53;20992;-81
2021/12/15 10:21:28;;;;;;;14.87;5.70;;;9.50;74.70;;;;;;2544768;53;21449;-81
2021/12/15 10:23:55;;;;;;;16.17;6.68;;;9.50;74.80;;;;;;2544972;53;20967;-81
2021/12/15 10:26:22;;;;;;;17.45;6.35;;;9.60;75.60;;;;;;2328514;54;21102;-82
2021/12/15 10:28:52;;;;;;;17.08;7.18;;;9.60;74.90;;;;;;2323553;54;22120;-80
2021/12/15 10:31:21;;;;;;;16.12;7.22;;;9.60;74.80;;;;;;2553670;53;20984;-80
2021/12/15 10:33:52;;;;;;;17.08;6.95;;;9.60;74.80;;;;;;2558974;53;20939;-81
2021/12/15 10:36:24;;;;;;;16.92;6.43;;;9.60;74.80;;;;;;2559859;53;20987;-81
2021/12/15 10:38:53;;;;;;;19.02;7.03;;;9.70;74.90;;;;;;2316166;54;21027;-81
2021/12/15 10:41:28;;;;;;;17.65;6.80;;;9.70;74.90;;;;;;2552513;53;20940;-82
2021/12/15 10:44:03;;;;;;;15.00;7.28;;;9.70;74.80;;;;;;2551779;53;21464;-81
2021/12/15 10:46:38;;;;;;;17.42;7.10;;;9.70;74.50;;;;;;2304888;54;21412;-80
2021/12/15 10:49:16;;;;;;;13.77;6.43;;;9.70;75.20;;;;;;2311202;54;20951;-82
2021/12/15 10:52:15;;;;;;;16.35;6.78;;;9.80;74.50;;;;;;2560143;53;20943;-81
2021/12/15 10:54:46;;;;;;;13.50;6.00;;;9.80;74.20;;;;;;2312301;54;21053;-80
2021/12/15 10:57:34;;;;;;;15.32;6.55;;;9.80;74.60;;;;;;2542885;53;21845;-81
2021/12/15 11:00:00;;;;;;;13.25;6.43;;;9.80;74.30;;;;;;2548838;53;20979;-80
2021/12/15 11:02:41;;;;;;;13.77;5.28;;;9.80;74.50;;;;;;2547599;53;21055;-81
2021/12/15 11:05:14;;;;;;;15.60;6.78;;;9.80;74.70;;;;;;2302918;54;21015;-81
2021/12/15 11:08:02;;;;;;;16.30;6.93;;;9.90;74.70;;;;;;2539372;53;21003;-81
2021/12/15 11:10:34;;;;;;;14.43;5.95;;;9.90;74.50;;;;;;2542079;53;21653;-81
2021/12/15 11:13:03;;;;;;;19.25;7.68;;;9.90;74.60;;;;;;2541049;53;21382;-80
2021/12/15 11:15:39;;;;;;;17.20;7.03;;;9.90;74.70;;;;;;2558578;53;21395;-82
2021/12/15 11:18:25;;;;;;;17.83;7.18;;;9.90;74.50;;;;;;2301979;54;21384;-81
2021/12/15 11:21:00;;;;;;;16.98;6.87;;;10.00;73.00;;;;;;2542583;53;20998;-82
2021/12/15 11:23:28;;;;;;;15.02;6.65;;;9.90;74.30;;;;;;2543255;53;21422;-80
2021/12/15 11:25:56;;;;;;;14.27;6.68;;;10.00;73.40;;;;;;2561476;53;21471;-81
2021/12/15 11:28:25;;;;;;;15.63;6.78;;;10.00;73.40;;;;;;2542613;53;20947;-81
2021/12/15 11:31:37;;;;;;;14.70;6.55;;;10.00;73.40;;;;;;2304986;54;20931;-81
2021/12/15 11:34:07;;;;;;;15.15;6.53;;;10.10;73.00;;;;;;2558037;53;20927;-81
2021/12/15 11:36:44;;;;;;;17.33;7.00;;;10.00;73.50;;;;;;2544691;53;20951;-81
2021/12/15 11:39:19;;;;;;;18.87;7.97;;;10.10;73.70;;;;;;2541274;53;21543;-81
2021/12/15 11:41:47;;;;;;;16.30;7.18;;;10.10;73.60;;;;;;2282310;54;22153;-81
2021/12/15 11:44:22;;;;;;;17.67;7.90;;;10.10;73.70;;;;;;2549243;53;21850;-82
2021/12/15 11:46:54;;;;;;;13.40;6.47;;;10.00;73.60;;;;;;2540882;53;21520;-81
2021/12/15 11:49:35;;;;;;;16.42;7.15;;;10.20;73.90;;;;;;2533279;53;22215;-82
2021/12/15 11:52:10;;;;;;;15.15;6.75;;;10.20;73.80;;;;;;2267176;54;1441092;-83
2021/12/15 11:54:56;;;;;;;16.12;6.68;;;10.20;73.80;;;;;;2544015;53;20959;-81
2021/12/15 11:57:27;;;;;;;16.98;6.87;;;10.30;73.90;;;;;;2512633;54;21003;-81
2021/12/15 12:00:12;;;;;;;16.12;6.20;;;10.30;73.80;;;;;;2517791;53;20956;-82
2021/12/15 12:02:43;;;;;;;12.55;5.87;;;10.30;73.60;;;;;;2534435;53;20968;-81
2021/12/15 12:05:19;;;;;;;13.35;6.22;;;10.30;73.70;;;;;;2328970;54;21014;-81
2021/12/15 12:07:54;;;;;;;9.95;5.20;;;10.40;73.80;;;;;;2283560;54;21046;-81
2021/12/15 12:10:31;;;;;;;12.82;5.85;;;10.50;74.80;;;;;;2554755;53;20991;-81
2021/12/15 12:13:39;;;;;;;12.57;6.12;;;10.40;73.80;;;;;;2542620;53;21007;-81
2021/12/15 12:16:07;;;;;;;10.38;5.20;;;10.40;73.60;;;;;;2543891;53;20956;-81
2021/12/15 12:18:34;;;;;;;11.48;5.50;;;10.50;73.80;;;;;;2556522;53;21047;-82
2021/12/15 12:21:07;;;;;;;12.55;6.32;;;10.50;73.80;;;;;;2549668;53;21337;-81
2021/12/15 12:23:33;;;;;;;11.23;5.93;;;10.50;73.80;;;;;;2305598;55;20987;-81
2021/12/15 12:26:03;;;;;;;12.15;6.05;;;10.50;73.90;;;;;;2544085;53;21021;-80
2021/12/15 12:28:32;;;;;;;12.20;5.87;;;10.60;74.00;;;;;;2326157;54;20896;-81
2021/12/15 12:31:05;;;;;;;13.15;6.15;;;10.50;73.90;;;;;;2560851;53;20919;-82
2021/12/15 12:33:32;;;;;;;15.18;6.60;;;10.70;74.10;;;;;;2304670;54;22079;-81
2021/12/15 12:36:10;;;;;;;10.73;5.57;;;10.60;74.00;;;;;;2545349;53;20918;-80
2021/12/15 12:38:39;;;;;;;10.48;5.75;;;10.70;73.50;;;;;;2328271;54;21019;-80
2021/12/15 12:41:14;;;;;;;10.32;5.60;;;10.70;73.50;;;;;;2546388;53;20936;-81
2021/12/15 12:43:46;;;;;;;10.88;5.15;;;10.70;73.20;;;;;;2332556;54;21011;-81
2021/12/15 12:46:39;;;;;;;9.65;5.00;;;10.70;73.20;;;;;;2552366;53;20931;-81
2021/12/15 13:00:53;;;;;;;11.05;4.32;;;10.70;73.00;;;;;;2544261;53;20916;-81
2021/12/15 13:03:30;;;;;;;8.45;4.30;;;10.70;72.40;;;;;;2514716;54;21074;-83
2021/12/15 13:06:02;;;;;;;9.15;4.25;;;10.70;72.80;;;;;;2551036;53;21960;-81
2021/12/15 13:08:43;;;;;;;9.98;4.05;;;10.70;73.00;;;;;;2555127;53;21330;-82
2021/12/15 13:11:29;;;;;;;8.65;4.28;;;10.70;72.70;;;;;;2545338;53;20939;-81
2021/12/15 13:14:15;;;;;;;8.40;4.28;;;10.70;73.00;;;;;;2544859;53;20951;-81
2021/12/15 13:16:54;;;;;;;8.18;4.18;;;10.70;72.70;;;;;;2552250;53;21625;-81
2021/12/15 13:19:53;;;;;;;7.70;4.20;;;10.70;72.70;;;;;;2297261;54;20971;-81
2021/12/15 13:23:05;;;;;;;7.60;4.05;;;10.70;72.10;;;;;;2524392;53;20970;-81
2021/12/15 13:34:37;;;;;;;6.85;3.17;;;10.70;72.80;;;;;;2289574;54;20967;-82
2021/12/15 13:37:06;;;;;;;8.98;4.12;;;10.80;72.40;;;;;;2556884;53;20931;-81
2021/12/15 13:39:44;;;;;;;10.00;4.82;;;10.70;72.60;;;;;;2304968;54;20959;-81
2021/12/15 13:42:14;;;;;;;9.85;4.90;;;10.70;72.30;;;;;;2543505;53;20935;-81
2021/12/15 13:44:50;;;;;;;8.40;4.60;;;10.70;72.50;;;;;;2314792;54;20992;-82
2021/12/15 13:47:25;;;;;;;9.10;4.82;;;10.70;72.10;;;;;;2553920;53;21221;-81
2021/12/15 13:50:13;;;;;;;9.25;4.90;;;10.60;71.90;;;;;;2544018;53;20919;-81
2021/12/15 13:52:42;;;;;;;8.10;4.75;;;10.60;71.70;;;;;;2561304;53;21377;-81
2021/12/15 13:55:31;;;;;;;8.95;4.28;;;10.60;71.90;;;;;;2545436;53;20951;-82
2021/12/15 13:59:57;;;;;;;8.60;4.03;;;10.50;71.40;;;;;;2545135;53;21003;-80
2021/12/15 14:03:54;;;;;;;15.43;7.47;;;10.50;71.00;;;;;;2563099;53;20955;-82
2021/12/15 14:06:23;;;;;;;9.38;5.28;;;10.50;70.90;;;;;;2556669;53;20920;-81
2021/12/15 14:08:55;;;;;;;8.60;4.93;;;10.40;71.70;;;;;;2309998;54;20931;-82
2021/12/15 14:11:29;;;;;;;9.05;5.18;;;10.40;71.70;;;;;;2512522;54;21015;-82
2021/12/15 14:14:22;;;;;;;9.00;4.85;;;10.40;71.60;;;;;;2513380;54;21663;-82
2021/12/15 14:16:57;;;;;;;11.12;5.43;;;10.30;71.20;;;;;;2544923;53;20983;-82
2021/12/15 14:19:27;;;;;;;10.30;4.75;;;10.30;71.30;;;;;;2535769;53;21061;-81
2021/12/15 14:22:06;;;;;;;8.25;4.32;;;10.30;71.70;;;;;;2512692;54;20959;-81
2021/12/15 14:24:32;;;;;;;9.43;5.03;;;10.20;71.70;;;;;;2544807;53;20946;-82
2021/12/15 14:26:59;;;;;;;8.38;4.47;;;10.20;71.90;;;;;;2305247;55;20942;-82
2021/12/15 14:29:27;;;;;;;9.27;5.00;;;10.00;71.70;;;;;;2547350;53;21066;-81
2021/12/15 14:31:54;;;;;;;9.25;4.68;;;10.20;72.00;;;;;;2517622;54;21038;-81
2021/12/15 14:34:34;;;;;;;9.80;5.18;;;10.10;71.90;;;;;;2310524;55;21027;-81
2021/12/15 14:37:03;;;;;;;10.20;5.32;;;10.10;71.70;;;;;;2548203;53;21055;-81
2021/12/15 14:39:35;;;;;;;9.85;4.78;;;10.10;71.90;;;;;;2547889;53;20934;-81
2021/12/15 14:42:46;;;;;;;9.02;4.53;;;10.10;72.00;;;;;;2549372;53;20971;-81
2021/12/15 14:45:13;;;;;;;6.97;3.97;;;10.10;72.10;;;;;;2318659;54;21039;-81